Terminal Aerodrome Forecast
Issued by NWS Shreveport, LA

Home | Current Version | Previous Version | Text Only | Print | Product List | Glossary On
Versions: 1 2 3 4 5 6 7 8 9 10 11 12 13
000
FTUS44 KSHV 050522
TAFELD
TAF
KELD 050522Z 0506/0606 14011KT P6SM SCT060
     FM051100 11004KT 5SM BR BKN015
     FM051400 13011KT P6SM BKN035
     FM051600 14010G18KT P6SM SCT040
     FM060000 13006KT P6SM SCT100 BKN250=

USA.gov is the U.S. government's official web portal to all federal, state and local government web resources and services.